Time;durP1;ratioP1;P1;durP2;ratioP2;P2;SDS_P1;SDS_P2;PMS_P1;PMS_P2;Temp;Humidity;BMP_temperature;BMP_pressure;BME280_temperature;BME280_humidity;BME280_pressure;Samples;Min_cycle;Max_cycle;Signal;HPM_P1;HPM_P2
2022/06/17 00:02:12;;;;;;;;;;;;;;;;;;6017695;23;7144;-86
2022/06/17 00:04:38;;;;;;;;;;;;;;;;;;6018364;23;8530;-84
2022/06/17 00:07:08;;;;;;;;;;;;;;;;;;6017964;23;7304;-86
2022/06/17 00:09:35;;;;;;;;;;;;;;;;;;6018377;23;6990;-86
2022/06/17 00:12:02;;;;;;;;;;;;;;;;;;6017995;23;9396;-86
2022/06/17 00:14:32;;;;;;;;;;;;;;;;;;6018676;23;7025;-85
2022/06/17 00:17:07;;;;;;;;;;;;;;;;;;6017494;23;7225;-85
2022/06/17 00:19:32;;;;;;;;;;;;;;;;;;6018042;23;7121;-85
2022/06/17 00:21:58;;;;;;;;;;;;;;;;;;6017671;23;8533;-85
2022/06/17 00:24:26;;;;;;;;;;;;;;;;;;6018231;23;7116;-85
2022/06/17 00:26:54;;;;;;;;;;;;;;;;;;6018042;23;7030;-84
2022/06/17 00:29:22;;;;;;;;;;;;;;;;;;6017611;23;6998;-84
2022/06/17 00:31:47;;;;;;;;;;;;;;;;;;6017983;23;7929;-84
2022/06/17 00:34:13;;;;;;;;;;;;;;;;;;6017766;23;8752;-85
2022/06/17 00:36:40;;;;;;;;;;;;;;;;;;6018324;23;6977;-84
2022/06/17 00:39:11;;;;;;;;;;;;;;;;;;6017514;23;7227;-85
2022/06/17 00:41:39;;;;;;;;;;;;;;;;;;6017322;23;7079;-85
2022/06/17 00:44:27;;;;;;;;;;;;;;;;;;6017717;23;8279;-84
2022/06/17 00:46:58;;;;;;;;;;;;;;;;;;6002438;23;7007;-85
2022/06/17 00:49:39;;;;;;;;;;;;;;;;;;6017470;23;7335;-86
2022/06/17 00:52:23;;;;;;;;;;;;;;;;;;6018302;23;7010;-85
2022/06/17 00:54:53;;;;;;;;;;;;;;;;;;6017707;23;8487;-85
2022/06/17 00:57:25;;;;;;;;;;;;;;;;;;6017614;23;8445;-86
2022/06/17 01:00:20;;;;;;;;;;;;;;;;;;6041867;23;8518;-85
2022/06/17 01:03:04;;;;;;;;;;;;;;;;;;6000718;23;8945;-85
2022/06/17 01:05:39;;;;;;;;;;;;;;;;;;6036964;23;7209;-85
2022/06/17 01:08:14;;;;;;;;;;;;;;;;;;6036609;23;7023;-84
2022/06/17 01:10:48;;;;;;;;;;;;;;;;;;6036009;23;7020;-85
2022/06/17 01:13:14;;;;;;;;;;;;;;;;;;6037054;23;7170;-85
2022/06/17 01:15:42;;;;;;;;;;;;;;;;;;6036804;23;7022;-85
2022/06/17 01:18:10;;;;;;;;;;;;;;;;;;6036036;23;8368;-85
2022/06/17 01:20:38;;;;;;;;;;;;;;;;;;6036358;23;7203;-85
2022/06/17 01:23:06;;;;;;;;;;;;;;;;;;6035969;23;7037;-85
2022/06/17 01:25:35;;;;;;;;;;;;;;;;;;6035982;23;7150;-85
2022/06/17 01:28:06;;;;;;;;;;;;;;;;;;6036594;23;6973;-86
2022/06/17 01:30:34;;;;;;;;;;;;;;;;;;6036200;23;7034;-86
2022/06/17 01:33:04;;;;;;;;;;;;;;;;;;6036586;23;7023;-85
2022/06/17 01:35:35;;;;;;;;;;;;;;;;;;6036629;23;7039;-84
2022/06/17 01:38:01;;;;;;;;;;;;;;;;;;6037185;23;8499;-84
2022/06/17 01:40:28;;;;;;;;;;;;;;;;;;6036264;23;8304;-86
2022/06/17 01:42:57;;;;;;;;;;;;;;;;;;6036241;23;7577;-85
2022/06/17 01:45:23;;;;;;;;;;;;;;;;;;6036518;23;8299;-85
2022/06/17 01:47:49;;;;;;;;;;;;;;;;;;6036558;23;7016;-84
2022/06/17 01:50:20;;;;;;;;;;;;;;;;;;6036944;23;8683;-85
2022/06/17 01:52:52;;;;;;;;;;;;;;;;;;6036494;23;7264;-85
2022/06/17 01:55:34;;;;;;;;;;;;;;;;;;6036255;23;8860;-86
2022/06/17 01:58:05;;;;;;;;;;;;;;;;;;6037154;23;7249;-85
2022/06/17 02:00:32;;;;;;;;;;;;;;;;;;6036500;23;7239;-86
2022/06/17 02:03:06;;;;;;;;;;;;;;;;;;6036026;23;7021;-85
2022/06/17 02:05:34;;;;;;;;;;;;;;;;;;6036180;23;7212;-86
2022/06/17 02:08:02;;;;;;;;;;;;;;;;;;6036364;23;7381;-85
2022/06/17 02:10:30;;;;;;;;;;;;;;;;;;6036037;23;7165;-85
2022/06/17 02:12:57;;;;;;;;;;;;;;;;;;6036414;23;7241;-84
2022/06/17 02:15:23;;;;;;;;;;;;;;;;;;6036171;23;7137;-86
2022/06/17 02:17:51;;;;;;;;;;;;;;;;;;6035979;23;7152;-85
2022/06/17 02:20:18;;;;;;;;;;;;;;;;;;6036573;23;8303;-85
2022/06/17 02:22:45;;;;;;;;;;;;;;;;;;6035923;23;8406;-86
2022/06/17 02:25:15;;;;;;;;;;;;;;;;;;6035992;23;8318;-85
2022/06/17 02:27:43;;;;;;;;;;;;;;;;;;6035770;23;8405;-85
2022/06/17 02:30:10;;;;;;;;;;;;;;;;;;6036235;23;8424;-85
2022/06/17 02:32:37;;;;;;;;;;;;;;;;;;6036061;23;7142;-86
2022/06/17 02:35:06;;;;;;;;;;;;;;;;;;6035808;23;7113;-86
2022/06/17 02:37:32;;;;;;;;;;;;;;;;;;6036283;23;8672;-83
2022/06/17 02:40:02;;;;;;;;;;;;;;;;;;6036798;23;7203;-84
2022/06/17 02:42:27;;;;;;;;;;;;;;;;;;6037501;23;7029;-85
2022/06/17 02:45:02;;;;;;;;;;;;;;;;;;6037915;23;8397;-85
2022/06/17 02:47:29;;;;;;;;;;;;;;;;;;6037228;23;7539;-87
2022/06/17 02:49:55;;;;;;;;;;;;;;;;;;6037506;23;7038;-85
2022/06/17 02:52:31;;;;;;;;;;;;;;;;;;6037543;23;7047;-86
2022/06/17 02:55:02;;;;;;;;;;;;;;;;;;6038237;23;8443;-85
2022/06/17 02:57:30;;;;;;;;;;;;;;;;;;6038252;23;8665;-84
2022/06/17 02:59:58;;;;;;;;;;;;;;;;;;6037975;23;7017;-85
2022/06/17 03:02:28;;;;;;;;;;;;;;;;;;6042599;23;7013;-86
2022/06/17 03:04:54;;;;;;;;;;;;;;;;;;6044755;23;8688;-85
2022/06/17 03:07:22;;;;;;;;;;;;;;;;;;6043027;23;7019;-85
2022/06/17 03:09:48;;;;;;;;;;;;;;;;;;6042165;23;7383;-83
2022/06/17 03:12:26;;;;;;;;;;;;;;;;;;6042179;23;7096;-85
2022/06/17 03:15:03;;;;;;;;;;;;;;;;;;6042731;23;8430;-85
2022/06/17 03:17:30;;;;;;;;;;;;;;;;;;6042195;23;8337;-86
2022/06/17 03:20:00;;;;;;;;;;;;;;;;;;6042251;23;7214;-86
2022/06/17 03:22:27;;;;;;;;;;;;;;;;;;6041925;23;7032;-85
2022/06/17 03:24:56;;;;;;;;;;;;;;;;;;6042327;23;7004;-85
2022/06/17 03:27:40;;;;;;;;;;;;;;;;;;6042563;23;7236;-85
2022/06/17 03:30:06;;;;;;;;;;;;;;;;;;6042210;23;7189;-85
2022/06/17 03:32:42;;;;;;;;;;;;;;;;;;6042494;23;8321;-85
2022/06/17 03:35:17;;;;;;;;;;;;;;;;;;6042519;23;7129;-85
2022/06/17 03:37:54;;;;;;;;;;;;;;;;;;6042227;23;6799;-85
2022/06/17 03:40:30;;;;;;;;;;;;;;;;;;6042906;23;8321;-84
2022/06/17 03:43:03;;;;;;;;;;;;;;;;;;6042554;23;7012;-84
2022/06/17 03:45:40;;;;;;;;;;;;;;;;;;6042493;23;7167;-85
2022/06/17 03:48:22;;;;;;;;;;;;;;;;;;6041750;23;7240;-85
2022/06/17 03:50:48;;;;;;;;;;;;;;;;;;6042748;23;7010;-86
2022/06/17 03:53:17;;;;;;;;;;;;;;;;;;6042040;23;7340;-85
2022/06/17 03:55:43;;;;;;;;;;;;;;;;;;6042490;23;8597;-85
2022/06/17 03:58:16;;;;;;;;;;;;;;;;;;6042317;23;8273;-86
2022/06/17 04:00:47;;;;;;;;;;;;;;;;;;6042028;23;8386;-85
2022/06/17 04:03:19;;;;;;;;;;;;;;;;;;6041706;23;8401;-84
2022/06/17 04:05:49;;;;;;;;;;;;;;;;;;6042208;23;8300;-85
2022/06/17 04:08:14;;;;;;;;;;;;;;;;;;6041415;23;8421;-85
2022/06/17 04:10:41;;;;;;;;;;;;;;;;;;6042567;23;7451;-86
2022/06/17 04:13:13;;;;;;;;;;;;;;;;;;6041562;23;7045;-86
2022/06/17 04:15:44;;;;;;;;;;;;;;;;;;6041704;23;8343;-85
2022/06/17 04:18:10;;;;;;;;;;;;;;;;;;6041298;23;7384;-85
2022/06/17 04:20:44;;;;;;;;;;;;;;;;;;6041693;23;8796;-86
2022/06/17 04:23:18;;;;;;;;;;;;;;;;;;6041608;23;8574;-85
2022/06/17 04:26:02;;;;;;;;;;;;;;;;;;6041003;23;7027;-87
2022/06/17 04:28:34;;;;;;;;;;;;;;;;;;6039081;23;8708;-85
2022/06/17 04:31:01;;;;;;;;;;;;;;;;;;6041147;23;8478;-86
2022/06/17 04:33:27;;;;;;;;;;;;;;;;;;6041424;23;7385;-84
2022/06/17 04:35:58;;;;;;;;;;;;;;;;;;6041465;23;7475;-87
2022/06/17 04:38:25;;;;;;;;;;;;;;;;;;6041762;23;7139;-85
2022/06/17 04:40:55;;;;;;;;;;;;;;;;;;6041100;23;8405;-84
2022/06/17 04:43:26;;;;;;;;;;;;;;;;;;6041055;23;7218;-86
2022/06/17 04:46:01;;;;;;;;;;;;;;;;;;6040815;23;7150;-86
2022/06/17 04:48:26;;;;;;;;;;;;;;;;;;6041138;23;7038;-86
2022/06/17 04:50:53;;;;;;;;;;;;;;;;;;6040521;23;8478;-86
2022/06/17 04:53:18;;;;;;;;;;;;;;;;;;6041023;23;7401;-85
2022/06/17 04:55:46;;;;;;;;;;;;;;;;;;6041720;23;7070;-85
2022/06/17 04:58:17;;;;;;;;;;;;;;;;;;6040940;23;7025;-84
2022/06/17 05:00:45;;;;;;;;;;;;;;;;;;6041529;23;8295;-86
2022/06/17 05:03:11;;;;;;;;;;;;;;;;;;6040771;23;7196;-85
2022/06/17 05:05:40;;;;;;;;;;;;;;;;;;6041087;23;8594;-86
2022/06/17 05:08:11;;;;;;;;;;;;;;;;;;6041594;23;7235;-85
2022/06/17 05:10:40;;;;;;;;;;;;;;;;;;6040701;23;8578;-85
2022/06/17 05:13:18;;;;;;;;;;;;;;;;;;6040975;23;7214;-85
2022/06/17 05:15:44;;;;;;;;;;;;;;;;;;6040706;23;6804;-85
2022/06/17 05:18:10;;;;;;;;;;;;;;;;;;6041148;23;7005;-85
2022/06/17 05:20:35;;;;;;;;;;;;;;;;;;6041122;23;8405;-85
2022/06/17 05:23:03;;;;;;;;;;;;;;;;;;6040915;23;8672;-86
2022/06/17 05:25:30;;;;;;;;;;;;;;;;;;6040799;23;8296;-85
2022/06/17 05:27:56;;;;;;;;;;;;;;;;;;6041075;23;7036;-85
2022/06/17 05:30:22;;;;;;;;;;;;;;;;;;6040765;23;7089;-84
2022/06/17 05:32:49;;;;;;;;;;;;;;;;;;6040943;23;8479;-83
2022/06/17 05:35:15;;;;;;;;;;;;;;;;;;6040975;23;7134;-84
2022/06/17 05:37:41;;;;;;;;;;;;;;;;;;6041144;23;7121;-85
2022/06/17 05:40:08;;;;;;;;;;;;;;;;;;6040466;23;6980;-85
2022/06/17 05:42:38;;;;;;;;;;;;;;;;;;6040480;23;7466;-84
2022/06/17 05:45:05;;;;;;;;;;;;;;;;;;6040735;23;7154;-84
2022/06/17 05:47:31;;;;;;;;;;;;;;;;;;6040768;23;8546;-84
2022/06/17 05:49:57;;;;;;;;;;;;;;;;;;6041363;23;7296;-84
2022/06/17 05:52:22;;;;;;;;;;;;;;;;;;6040477;23;7146;-84
2022/06/17 05:54:48;;;;;;;;;;;;;;;;;;6042065;23;8360;-83
2022/06/17 05:57:13;;;;;;;;;;;;;;;;;;6040252;23;7136;-84
2022/06/17 05:59:39;;;;;;;;;;;;;;;;;;6040569;23;8421;-84
2022/06/17 06:02:05;;;;;;;;;;;;;;;;;;6040518;23;7167;-85
2022/06/17 06:04:31;;;;;;;;;;;;;;;;;;6040858;23;8410;-84
2022/06/17 06:06:57;;;;;;;;;;;;;;;;;;6040645;23;7035;-84
2022/06/17 06:09:23;;;;;;;;;;;;;;;;;;6040503;23;8428;-84
2022/06/17 06:11:48;;;;;;;;;;;;;;;;;;6041078;23;8531;-84
2022/06/17 06:14:14;;;;;;;;;;;;;;;;;;6040042;23;7131;-84
2022/06/17 06:16:42;;;;;;;;;;;;;;;;;;6040407;23;6935;-85
2022/06/17 06:19:07;;;;;;;;;;;;;;;;;;6040320;23;8471;-84
2022/06/17 06:21:33;;;;;;;;;;;;;;;;;;6040657;23;8326;-84
2022/06/17 06:23:58;;;;;;;;;;;;;;;;;;6040250;23;7010;-85
2022/06/17 06:26:24;;;;;;;;;;;;;;;;;;6040299;23;7034;-84
2022/06/17 06:28:51;;;;;;;;;;;;;;;;;;6040519;23;7267;-84
2022/06/17 06:31:45;;;;;;;;;;;;;;;;;;6040341;23;7030;-83
2022/06/17 06:34:13;;;;;;;;;;;;;;;;;;6004703;23;7146;-84
2022/06/17 06:36:39;;;;;;;;;;;;;;;;;;6040531;23;7942;-84
2022/06/17 06:39:04;;;;;;;;;;;;;;;;;;6040369;23;7036;-84
2022/06/17 06:41:30;;;;;;;;;;;;;;;;;;6041665;23;8299;-84
2022/06/17 06:43:56;;;;;;;;;;;;;;;;;;6040463;23;6876;-85
2022/06/17 06:46:24;;;;;;;;;;;;;;;;;;6040266;23;8599;-84
2022/06/17 06:48:50;;;;;;;;;;;;;;;;;;6040327;23;6914;-83
2022/06/17 06:51:16;;;;;;;;;;;;;;;;;;6037502;23;7281;-85
2022/06/17 06:53:41;;;;;;;;;;;;;;;;;;6040209;23;8360;-85
2022/06/17 06:56:07;;;;;;;;;;;;;;;;;;6038564;23;7036;-85
2022/06/17 06:58:32;;;;;;;;;;;;;;;;;;6034032;23;6991;-86
2022/06/17 07:00:59;;;;;;;;;;;;;;;;;;6037548;23;8303;-87
2022/06/17 07:03:26;;;;;;;;;;;;;;;;;;6038518;23;8812;-85
2022/06/17 07:05:53;;;;;;;;;;;;;;;;;;6038765;23;6963;-86
2022/06/17 07:08:22;;;;;;;;;;;;;;;;;;6039351;23;8712;-85
2022/06/17 07:10:55;;;;;;;;;;;;;;;;;;6038449;23;8366;-86
2022/06/17 07:13:22;;;;;;;;;;;;;;;;;;6033729;23;8303;-82
2022/06/17 07:15:53;;;;;;;;;;;;;;;;;;6039216;23;9188;-81
2022/06/17 07:18:24;;;;;;;;;;;;;;;;;;6039383;23;8316;-81
2022/06/17 07:20:52;;;;;;;;;;;;;;;;;;6038084;23;8427;-84
2022/06/17 07:23:20;;;;;;;;;;;;;;;;;;6032293;23;7053;-85
2022/06/17 07:25:46;;;;;;;;;;;;;;;;;;6038175;23;8327;-85
2022/06/17 07:28:13;;;;;;;;;;;;;;;;;;6040833;23;8451;-87
2022/06/17 07:30:39;;;;;;;;;;;;;;;;;;6040889;23;8391;-86
2022/06/17 07:33:04;;;;;;;;;;;;;;;;;;6040557;23;7184;-89
2022/06/17 07:35:31;;;;;;;;;;;;;;;;;;6040405;23;7161;-87
2022/06/17 07:40:47;;;;;;;;;;;;;;;;;;6042359;23;6800;-87
2022/06/17 07:43:17;;;;;;;;;;;;;;;;;;5995462;23;12024;-89
2022/06/17 07:45:43;;;;;;;;;;;;;;;;;;6003797;23;7037;-88
2022/06/17 07:48:11;;;;;;;;;;;;;;;;;;6012835;23;8595;-88
2022/06/17 07:50:38;;;;;;;;;;;;;;;;;;6013039;23;8304;-87
2022/06/17 07:53:04;;;;;;;;;;;;;;;;;;6011736;23;7157;-86
2022/06/17 07:55:29;;;;;;;;;;;;;;;;;;6011622;23;8747;-89
2022/06/17 07:57:55;;;;;;;;;;;;;;;;;;6011838;23;8318;-86
2022/06/17 08:00:31;;;;;;;;;;;;;;;;;;6013020;23;7118;-89
2022/06/17 08:02:57;;;;;;;;;;;;;;;;;;6018067;23;7043;-88
2022/06/17 08:05:23;;;;;;;;;;;;;;;;;;6035761;23;7142;-87
2022/06/17 08:07:50;;;;;;;;;;;;;;;;;;6035706;23;7480;-86
2022/06/17 08:10:18;;;;;;;;;;;;;;;;;;6035876;23;7253;-85
2022/06/17 08:12:44;;;;;;;;;;;;;;;;;;6036518;23;8869;-86
2022/06/17 08:15:12;;;;;;;;;;;;;;;;;;6035972;23;8565;-87
2022/06/17 08:17:38;;;;;;;;;;;;;;;;;;6035514;23;7330;-89
2022/06/17 08:20:09;;;;;;;;;;;;;;;;;;6036120;23;7142;-88
2022/06/17 08:22:36;;;;;;;;;;;;;;;;;;6036074;23;7424;-88
2022/06/17 08:25:02;;;;;;;;;;;;;;;;;;6035580;23;7080;-87
2022/06/17 08:27:28;;;;;;;;;;;;;;;;;;6035005;23;9131;-86
2022/06/17 08:29:53;;;;;;;;;;;;;;;;;;6036435;23;8405;-88
2022/06/17 08:35:03;;;;;;;;;;;;;;;;;;6013227;23;7065;-87
2022/06/17 08:37:31;;;;;;;;;;;;;;;;;;6035585;23;8382;-88
2022/06/17 08:39:57;;;;;;;;;;;;;;;;;;6035872;23;8531;-87
2022/06/17 08:42:44;;;;;;;;;;;;;;;;;;6036210;23;7173;-88
2022/06/17 08:45:28;;;;;;;;;;;;;;;;;;6035259;23;7049;-86
2022/06/17 08:47:53;;;;;;;;;;;;;;;;;;6036213;23;7169;-90
2022/06/17 08:50:35;;;;;;;;;;;;;;;;;;6035451;23;7060;-87
2022/06/17 08:53:02;;;;;;;;;;;;;;;;;;6035287;23;7215;-87
2022/06/17 08:55:48;;;;;;;;;;;;;;;;;;6035244;23;8463;-85
2022/06/17 08:58:13;;;;;;;;;;;;;;;;;;6011068;23;8323;-77
2022/06/17 09:00:49;;;;;;;;;;;;;;;;;;6035278;23;8428;-78
2022/06/17 09:03:17;;;;;;;;;;;;;;;;;;6035808;23;8427;-78
2022/06/17 09:06:01;;;;;;;;;;;;;;;;;;6036066;23;8406;-84
2022/06/17 09:08:26;;;;;;;;;;;;;;;;;;6035513;23;8846;-83
2022/06/17 09:10:57;;;;;;;;;;;;;;;;;;6034713;23;7199;-83
2022/06/17 09:13:33;;;;;;;;;;;;;;;;;;6035906;23;8912;-83
2022/06/17 09:16:01;;;;;;;;;;;;;;;;;;6035657;23;8922;-77
2022/06/17 09:18:35;;;;;;;;;;;;;;;;;;6034921;23;8458;-79
2022/06/17 09:21:06;;;;;;;;;;;;;;;;;;6036316;23;8449;-79
2022/06/17 09:23:36;;;;;;;;;;;;;;;;;;6035487;23;7091;-77
2022/06/17 09:26:05;;;;;;;;;;;;;;;;;;6034671;23;7180;-79
2022/06/17 09:28:36;;;;;;;;;;;;;;;;;;6035506;23;7452;-77
2022/06/17 09:31:07;;;;;;;;;;;;;;;;;;6035981;23;7194;-79
2022/06/17 09:33:45;;;;;;;;;;;;;;;;;;6035448;23;9476;-83
2022/06/17 09:36:16;;;;;;;;;;;;;;;;;;6035472;23;8432;-83
2022/06/17 09:38:41;;;;;;;;;;;;;;;;;;6033863;23;7104;-80
2022/06/17 09:41:13;;;;;;;;;;;;;;;;;;6035567;23;7162;-81
2022/06/17 09:43:56;;;;;;;;;;;;;;;;;;6037519;23;8789;-80
2022/06/17 09:46:31;;;;;;;;;;;;;;;;;;6036101;23;8879;-81
2022/06/17 09:49:15;;;;;;;;;;;;;;;;;;6035992;23;7189;-82
2022/06/17 09:51:45;;;;;;;;;;;;;;;;;;6036005;23;7257;-80
2022/06/17 09:54:17;;;;;;;;;;;;;;;;;;6035149;23;8450;-80
2022/06/17 09:56:43;;;;;;;;;;;;;;;;;;6031711;23;8495;-83
2022/06/17 09:59:23;;;;;;;;;;;;;;;;;;6033980;23;7085;-82
2022/06/17 10:01:48;;;;;;;;;;;;;;;;;;6034205;23;8802;-80
2022/06/17 10:04:15;;;;;;;;;;;;;;;;;;6034673;23;7270;-81
2022/06/17 10:06:59;;;;;;;;;;;;;;;;;;6034129;23;8019;-82
2022/06/17 10:09:28;;;;;;;;;;;;;;;;;;6034471;23;8851;-82
2022/06/17 10:11:59;;;;;;;;;;;;;;;;;;6034884;23;7198;-78
2022/06/17 10:14:27;;;;;;;;;;;;;;;;;;6034644;23;8405;-82
2022/06/17 10:19:50;;;;;;;;;;;;;;;;;;6012851;23;6792;-79
2022/06/17 10:22:18;;;;;;;;;;;;;;;;;;6034735;23;7054;-84
2022/06/17 10:24:57;;;;;;;;;;;;;;;;;;6033401;23;9472;-85
2022/06/17 10:27:28;;;;;;;;;;;;;;;;;;6032904;23;8429;-85
2022/06/17 10:30:06;;;;;;;;;;;;;;;;;;6033592;23;8414;-85
2022/06/17 10:32:39;;;;;;;;;;;;;;;;;;6034549;23;8479;-85
2022/06/17 10:35:14;;;;;;;;;;;;;;;;;;6033905;23;8432;-85
2022/06/17 10:37:40;;;;;;;;;;;;;;;;;;6034124;23;8580;-86
2022/06/17 10:40:08;;;;;;;;;;;;;;;;;;6034148;23;8461;-85
2022/06/17 10:42:34;;;;;;;;;;;;;;;;;;6036141;23;7042;-82
2022/06/17 10:45:01;;;;;;;;;;;;;;;;;;6034346;23;7181;-85
2022/06/17 10:47:34;;;;;;;;;;;;;;;;;;6033077;23;8838;-85
2022/06/17 10:50:15;;;;;;;;;;;;;;;;;;6033454;23;8776;-86
2022/06/17 10:52:44;;;;;;;;;;;;;;;;;;6033398;23;6881;-86
2022/06/17 10:55:18;;;;;;;;;;;;;;;;;;6033445;23;8411;-86
2022/06/17 10:58:07;;;;;;;;;;;;;;;;;;6034531;23;8584;-86
2022/06/17 11:00:34;;;;;;;;;;;;;;;;;;6011672;23;7155;-86
2022/06/17 11:03:20;;;;;;;;;;;;;;;;;;6036477;23;7909;-86
2022/06/17 11:05:54;;;;;;;;;;;;;;;;;;6037373;23;7193;-87
2022/06/17 11:08:21;;;;;;;;;;;;;;;;;;6038095;23;7470;-86
2022/06/17 11:10:56;;;;;;;;;;;;;;;;;;6037152;23;8447;-85
2022/06/17 11:13:22;;;;;;;;;;;;;;;;;;6037252;23;8363;-85
2022/06/17 11:15:52;;;;;;;;;;;;;;;;;;6037246;23;8470;-85
2022/06/17 11:18:25;;;;;;;;;;;;;;;;;;6037146;23;9297;-85
2022/06/17 11:20:59;;;;;;;;;;;;;;;;;;6037514;23;7064;-85
2022/06/17 11:23:29;;;;;;;;;;;;;;;;;;6037124;23;8847;-85
2022/06/17 11:26:09;;;;;;;;;;;;;;;;;;6037129;23;8536;-86
2022/06/17 11:28:37;;;;;;;;;;;;;;;;;;6037158;23;8477;-85
2022/06/17 11:31:05;;;;;;;;;;;;;;;;;;6036799;23;7215;-85
2022/06/17 11:33:33;;;;;;;;;;;;;;;;;;6037278;23;8696;-86
2022/06/17 11:36:04;;;;;;;;;;;;;;;;;;6037654;23;8640;-85
2022/06/17 11:38:32;;;;;;;;;;;;;;;;;;6037577;23;8636;-86
2022/06/17 11:41:02;;;;;;;;;;;;;;;;;;6036944;23;8534;-85
2022/06/17 11:43:42;;;;;;;;;;;;;;;;;;6036912;23;9204;-86
2022/06/17 11:46:10;;;;;;;;;;;;;;;;;;6037155;23;7111;-86
2022/06/17 11:48:46;;;;;;;;;;;;;;;;;;6036604;23;8435;-85
2022/06/17 11:51:31;;;;;;;;;;;;;;;;;;6037320;23;7420;-85
2022/06/17 11:54:06;;;;;;;;;;;;;;;;;;6036516;23;8431;-85
2022/06/17 11:56:57;;;;;;;;;;;;;;;;;;6036121;23;8453;-85
2022/06/17 11:59:26;;;;;;;;;;;;;;;;;;6010985;23;7114;-85
2022/06/17 12:01:52;;;;;;;;;;;;;;;;;;6036666;23;8471;-85
2022/06/17 12:04:32;;;;;;;;;;;;;;;;;;6036069;23;8740;-85
2022/06/17 12:06:58;;;;;;;;;;;;;;;;;;6037035;23;8482;-85
2022/06/17 12:09:32;;;;;;;;;;;;;;;;;;6012927;23;8756;-85
2022/06/17 12:12:02;;;;;;;;;;;;;;;;;;6036305;23;8323;-85
2022/06/17 12:14:34;;;;;;;;;;;;;;;;;;6036753;23;8582;-85
2022/06/17 12:17:00;;;;;;;;;;;;;;;;;;6036617;23;8385;-85
2022/06/17 12:19:26;;;;;;;;;;;;;;;;;;6036501;23;7292;-84
2022/06/17 12:21:55;;;;;;;;;;;;;;;;;;6036922;23;8384;-85
2022/06/17 12:24:39;;;;;;;;;;;;;;;;;;6036425;23;8349;-85
2022/06/17 12:27:07;;;;;;;;;;;;;;;;;;6036453;23;8431;-85
2022/06/17 12:29:35;;;;;;;;;;;;;;;;;;6035600;23;8911;-85
2022/06/17 12:32:24;;;;;;;;;;;;;;;;;;6036168;23;8366;-85
2022/06/17 12:34:58;;;;;;;;;;;;;;;;;;6036052;23;8375;-85
2022/06/17 12:37:50;;;;;;;;;;;;;;;;;;6036111;23;7220;-85
2022/06/17 12:40:39;;;;;;;;;;;;;;;;;;6036691;23;8493;-85
2022/06/17 12:43:24;;;;;;;;;;;;;;;;;;6036745;23;8505;-85
2022/06/17 12:45:56;;;;;;;;;;;;;;;;;;6036654;23;8657;-84
2022/06/17 12:48:25;;;;;;;;;;;;;;;;;;6036370;23;8696;-85
2022/06/17 12:54:36;;;;;;;;;;;;;;;;;;6013601;23;7012;-85
2022/06/17 12:57:13;;;;;;;;;;;;;;;;;;5983523;24;8418;-84
2022/06/17 12:59:57;;;;;;;;;;;;;;;;;;6008843;23;8405;-85
2022/06/17 13:02:45;;;;;;;;;;;;;;;;;;6036757;23;7207;-85
2022/06/17 13:05:17;;;;;;;;;;;;;;;;;;5998620;23;8445;-85
2022/06/17 13:07:55;;;;;;;;;;;;;;;;;;6036283;23;8495;-86
2022/06/17 13:10:39;;;;;;;;;;;;;;;;;;6035821;23;8477;-86
2022/06/17 13:13:15;;;;;;;;;;;;;;;;;;6028817;23;8936;-85
2022/06/17 13:15:46;;;;;;;;;;;;;;;;;;6032914;23;8438;-85
2022/06/17 13:18:27;;;;;;;;;;;;;;;;;;6031727;23;8435;-86
2022/06/17 13:21:07;;;;;;;;;;;;;;;;;;6032920;23;7134;-86
2022/06/17 13:23:55;;;;;;;;;;;;;;;;;;6036437;23;8327;-86
2022/06/17 13:26:41;;;;;;;;;;;;;;;;;;5983780;23;11967;-86
2022/06/17 13:29:25;;;;;;;;;;;;;;;;;;6024565;23;7241;-85
2022/06/17 13:31:58;;;;;;;;;;;;;;;;;;6063390;23;8511;-86
2022/06/17 13:34:37;;;;;;;;;;;;;;;;;;6064280;23;7199;-86
2022/06/17 13:49:43;;;;;;;;;;;;;;;;;;5072035;28;6679;-56
2022/06/17 13:52:26;;;;;;;;;;;;;;;;;;5051844;28;7218;-56
2022/06/17 13:57:59;;;;;;;;;;;;;;;;;;5053013;28;6984;-56
2022/06/17 14:00:35;;;;;;;;;;;;;;;;;;5051596;28;7283;-56
2022/06/17 14:03:25;;;;;;;;;;;;;;;;;;5052601;28;7055;-56
2022/06/17 14:09:04;;;;;;;;;;;;;;;;;;5051298;28;7602;-56
2022/06/17 14:11:53;;;;;;;;;;;;;;;;;;5051530;28;7229;-56
2022/06/17 14:14:18;;;;;;;;;;;;;;;;;;5051552;28;7454;-57
